createdAt,value
2023-03-24T00:02:13.349Z,8.59
2023-03-24T00:04:59.181Z,8.71
2023-03-24T00:07:46.655Z,8.96
2023-03-24T00:10:32.307Z,8.88
2023-03-24T00:13:18.290Z,8.69
2023-03-24T00:16:08.799Z,8.62
2023-03-24T00:18:54.681Z,8.95
2023-03-24T00:21:39.838Z,8.93
2023-03-24T00:24:25.070Z,9.05
2023-03-24T00:27:10.538Z,9.00
2023-03-24T00:29:55.959Z,8.47
2023-03-24T00:32:41.568Z,8.86
2023-03-24T00:35:26.964Z,7.06
2023-03-24T00:38:12.889Z,8.89
2023-03-24T00:40:58.287Z,8.91
2023-03-24T00:43:43.364Z,8.78
2023-03-24T00:46:28.962Z,8.22
2023-03-24T00:49:15.606Z,8.88
2023-03-24T00:52:01.243Z,8.79
2023-03-24T00:54:48.846Z,8.81
2023-03-24T00:57:34.128Z,8.64
2023-03-24T01:00:25.000Z,8.62
2023-03-24T01:03:12.397Z,8.71
2023-03-24T01:06:03.986Z,8.57
2023-03-24T01:08:51.838Z,8.66
2023-03-24T01:11:40.178Z,8.84
2023-03-24T01:14:26.189Z,8.90
2023-03-24T01:17:11.510Z,8.73
2023-03-24T01:19:57.376Z,8.67
2023-03-24T01:22:43.312Z,8.44
2023-03-24T01:25:29.110Z,8.38
2023-03-24T01:28:17.994Z,8.13
2023-03-24T01:31:03.487Z,8.61
2023-03-24T01:33:49.051Z,8.64
2023-03-24T01:36:34.321Z,8.65
2023-03-24T01:39:19.699Z,8.89
2023-03-24T01:42:04.823Z,9.01
2023-03-24T01:44:51.643Z,8.80
2023-03-24T01:47:36.912Z,8.63
2023-03-24T01:50:23.015Z,8.83
2023-03-24T01:53:08.895Z,8.92
2023-03-24T01:55:54.798Z,8.72
2023-03-24T01:58:48.631Z,8.63
2023-03-24T02:01:39.071Z,8.70
2023-03-24T02:05:05.220Z,8.42
2023-03-24T02:08:08.279Z,8.47
2023-03-24T02:10:55.492Z,8.54
2023-03-24T02:13:43.030Z,8.50
2023-03-24T02:16:56.118Z,8.60
2023-03-24T02:20:03.380Z,8.76
2023-03-24T02:23:07.001Z,8.69
2023-03-24T02:25:55.010Z,8.97
2023-03-24T02:28:49.463Z,8.53
2023-03-24T02:31:52.916Z,8.41
2023-03-24T02:35:15.203Z,8.52
2023-03-24T02:38:17.446Z,8.56
2023-03-24T02:41:25.994Z,8.63
2023-03-24T02:44:26.917Z,8.61
2023-03-24T02:47:46.236Z,8.42
2023-03-24T02:51:04.132Z,8.52
2023-03-24T02:54:25.058Z,8.55
2023-03-24T02:57:25.638Z,8.75
2023-03-24T03:00:38.746Z,8.69
2023-03-24T03:03:32.375Z,8.80
2023-03-24T03:06:27.336Z,8.68
2023-03-24T03:09:17.535Z,8.84
2023-03-24T03:12:04.917Z,8.78
2023-03-24T03:15:01.101Z,8.73
2023-03-24T03:17:55.508Z,8.86
2023-03-24T03:20:46.232Z,8.90
2023-03-24T03:23:40.219Z,8.73
2023-03-24T03:26:29.291Z,8.91
2023-03-24T03:29:19.959Z,8.64
2023-03-24T03:32:09.319Z,8.62
2023-03-24T03:35:33.436Z,8.61
2023-03-24T03:38:47.361Z,8.40
2023-03-24T03:41:32.860Z,8.68
2023-03-24T03:44:18.519Z,8.66
2023-03-24T03:47:03.790Z,8.51
2023-03-24T03:50:01.133Z,8.46
2023-03-24T03:52:46.558Z,8.47
2023-03-24T03:55:33.207Z,8.55
2023-03-24T03:58:18.974Z,8.73
2023-03-24T04:01:14.669Z,8.71
2023-03-24T04:04:59.603Z,8.48
2023-03-24T04:08:43.957Z,8.42
2023-03-24T04:11:52.493Z,8.28
2023-03-24T04:15:35.814Z,8.37
2023-03-24T04:18:54.070Z,8.37
2023-03-24T04:21:39.127Z,8.39
2023-03-24T04:24:31.033Z,8.53
2023-03-24T04:27:33.510Z,8.41
2023-03-24T04:30:40.523Z,8.43
2023-03-24T04:33:32.623Z,8.49
2023-03-24T04:36:28.515Z,8.45
2023-03-24T04:39:44.200Z,8.49
2023-03-24T04:42:37.480Z,8.34
2023-03-24T04:45:23.840Z,8.31
2023-03-24T04:48:47.730Z,8.37
2023-03-24T04:51:40.402Z,8.31
2023-03-24T04:54:32.401Z,8.45
2023-03-24T04:57:23.144Z,8.52
2023-03-24T05:00:15.611Z,8.54
2023-03-24T05:03:00.786Z,8.61
2023-03-24T05:05:49.023Z,8.47
2023-03-24T05:08:34.213Z,8.42
2023-03-24T05:11:20.528Z,8.36
2023-03-24T05:14:16.256Z,8.22
2023-03-24T05:17:02.189Z,7.97
2023-03-24T05:19:47.825Z,8.29
2023-03-24T05:22:33.275Z,8.12
2023-03-24T05:25:19.650Z,8.15
2023-03-24T05:28:05.510Z,8.13
2023-03-24T05:30:51.481Z,8.20
2023-03-24T05:33:55.683Z,8.17
2023-03-24T05:36:41.570Z,8.03
2023-03-24T05:39:27.445Z,7.98
2023-03-24T05:42:26.208Z,7.86
2023-03-24T05:45:12.288Z,7.83
2023-03-24T05:47:58.612Z,7.71
2023-03-24T05:50:56.260Z,7.82
2023-03-24T05:53:41.729Z,7.82
2023-03-24T05:56:27.294Z,7.87
2023-03-24T05:59:38.953Z,7.81
2023-03-24T06:02:34.662Z,7.90
2023-03-24T06:05:25.413Z,7.75
2023-03-24T06:08:11.821Z,7.98
2023-03-24T06:11:04.385Z,7.89
2023-03-24T06:13:52.622Z,7.90
2023-03-24T06:16:38.923Z,7.76
2023-03-24T06:19:28.039Z,7.83
2023-03-24T06:22:26.568Z,7.91
2023-03-24T06:25:13.661Z,7.88
2023-03-24T06:28:03.550Z,7.82
2023-03-24T06:30:50.230Z,7.94
2023-03-24T06:33:44.285Z,8.02
2023-03-24T06:36:30.077Z,7.86
2023-03-24T06:39:15.374Z,7.96
2023-03-24T06:42:01.345Z,7.94
2023-03-24T06:44:48.541Z,8.00
2023-03-24T06:47:34.184Z,8.11
2023-03-24T06:50:19.975Z,7.96
2023-03-24T06:53:05.272Z,8.10
2023-03-24T06:55:52.971Z,8.18
2023-03-24T06:58:40.977Z,8.19
2023-03-24T07:01:30.016Z,8.09
2023-03-24T07:04:20.615Z,8.14
2023-03-24T07:07:38.156Z,8.35
2023-03-24T07:10:36.054Z,8.38
2023-03-24T07:13:22.062Z,8.50
2023-03-24T07:16:08.529Z,8.69
2023-03-24T07:18:56.726Z,8.92
2023-03-24T07:21:42.773Z,8.74
2023-03-24T07:24:30.544Z,8.90
2023-03-24T07:27:26.624Z,8.60
2023-03-24T07:30:12.714Z,9.02
2023-03-24T07:33:01.683Z,8.93
2023-03-24T07:35:47.271Z,9.03
2023-03-24T07:38:33.764Z,9.36
2023-03-24T07:41:23.731Z,9.38
2023-03-24T07:44:15.036Z,9.64
2023-03-24T07:47:07.882Z,9.48
2023-03-24T07:49:53.434Z,9.68
2023-03-24T07:52:40.275Z,9.86
2023-03-24T07:55:26.142Z,9.83
2023-03-24T07:58:15.829Z,9.75
2023-03-24T08:01:16.905Z,9.88
2023-03-24T08:04:05.608Z,10.01
2023-03-24T08:07:09.633Z,10.00
2023-03-24T08:09:54.698Z,9.61
2023-03-24T08:12:40.618Z,9.96
2023-03-24T08:15:26.965Z,9.96
2023-03-24T08:18:12.762Z,10.07
2023-03-24T08:20:59.289Z,9.98
2023-03-24T08:23:44.801Z,10.64
2023-03-24T08:26:30.282Z,10.67
2023-03-24T08:29:15.801Z,10.77
2023-03-24T08:32:01.329Z,10.63
2023-03-24T08:34:46.665Z,10.44
2023-03-24T08:37:32.159Z,10.46
2023-03-24T08:40:20.253Z,10.03
2023-03-24T08:43:08.838Z,10.26
2023-03-24T08:45:53.974Z,10.14
2023-03-24T08:48:39.374Z,10.00
2023-03-24T08:51:25.730Z,10.11
2023-03-24T08:54:11.270Z,10.16
2023-03-24T08:56:56.678Z,10.26
2023-03-24T08:59:41.827Z,10.20
2023-03-24T09:02:26.968Z,10.35
2023-03-24T09:05:13.285Z,10.25
2023-03-24T09:07:58.933Z,10.00
2023-03-24T09:10:44.416Z,10.09
2023-03-24T09:13:30.054Z,10.08
2023-03-24T09:16:17.002Z,10.52
2023-03-24T09:19:02.301Z,10.65
2023-03-24T09:21:48.810Z,10.80
2023-03-24T09:24:34.202Z,10.86
2023-03-24T09:27:19.584Z,10.10
2023-03-24T09:30:05.187Z,9.62
2023-03-24T09:32:50.591Z,8.92
2023-03-24T09:35:35.859Z,8.26
2023-03-24T09:38:21.123Z,8.08
2023-03-24T09:41:17.742Z,8.50
2023-03-24T09:44:23.624Z,8.67
2023-03-24T09:47:21.101Z,8.73
2023-03-24T09:50:16.550Z,8.99
2023-03-24T09:53:28.306Z,8.89
2023-03-24T09:56:16.496Z,8.70
2023-03-24T09:59:07.872Z,8.79
2023-03-24T10:01:53.175Z,8.72
2023-03-24T10:04:38.370Z,8.35
2023-03-24T10:07:27.824Z,8.53
2023-03-24T10:10:30.864Z,8.83
2023-03-24T10:13:40.790Z,8.73
2023-03-24T10:16:50.970Z,8.67
2023-03-24T10:20:04.247Z,8.62
2023-03-24T10:22:55.395Z,8.53
2023-03-24T10:25:50.791Z,8.30
2023-03-24T10:28:51.460Z,8.05
2023-03-24T10:31:38.301Z,7.97
2023-03-24T10:34:28.463Z,7.89
2023-03-24T10:37:14.547Z,7.93
2023-03-24T10:40:00.620Z,8.08
2023-03-24T10:42:49.201Z,8.04
2023-03-24T10:45:56.415Z,7.67
2023-03-24T10:48:41.699Z,8.08
2023-03-24T10:51:31.817Z,7.80
2023-03-24T10:54:19.097Z,7.97
2023-03-24T10:57:16.328Z,7.98
2023-03-24T11:00:10.193Z,7.81
2023-03-24T11:03:06.691Z,8.07
2023-03-24T11:05:59.051Z,8.25
2023-03-24T11:08:44.345Z,8.16
2023-03-24T11:11:33.170Z,7.93
2023-03-24T11:14:26.128Z,8.05
2023-03-24T11:17:14.434Z,8.13
2023-03-24T11:19:59.463Z,8.18
2023-03-24T11:23:08.726Z,7.95
2023-03-24T11:26:14.719Z,7.79
2023-03-24T11:29:12.895Z,7.86
2023-03-24T11:32:00.645Z,7.54
2023-03-24T11:34:54.688Z,7.62
2023-03-24T11:37:42.712Z,7.78
2023-03-24T11:40:29.491Z,7.78
2023-03-24T11:43:21.053Z,8.00
2023-03-24T11:46:18.747Z,8.00
2023-03-24T11:49:04.796Z,7.93
2023-03-24T11:51:54.236Z,7.72
2023-03-24T11:54:40.049Z,7.93
2023-03-24T11:57:45.812Z,7.46
2023-03-24T12:00:37.883Z,7.98
2023-03-24T12:03:44.691Z,7.93
2023-03-24T12:06:48.585Z,8.07
2023-03-24T12:09:48.266Z,8.00
2023-03-24T12:13:01.296Z,8.28
2023-03-24T12:16:20.675Z,8.24
2023-03-24T12:19:24.763Z,7.98
2023-03-24T12:22:28.074Z,8.13
2023-03-24T12:25:29.731Z,8.36
2023-03-24T12:28:29.898Z,8.40
2023-03-24T12:31:36.730Z,8.44
2023-03-24T12:34:59.284Z,8.48
2023-03-24T12:37:47.834Z,8.33
2023-03-24T12:40:54.394Z,8.24
2023-03-24T12:43:58.005Z,8.42
2023-03-24T12:47:12.018Z,8.54
2023-03-24T12:50:21.247Z,8.61
2023-03-24T12:53:36.978Z,8.50
2023-03-24T12:56:30.422Z,8.47
2023-03-24T12:59:28.665Z,8.73
2023-03-24T13:02:29.297Z,8.70
2023-03-24T13:05:38.265Z,8.77
2023-03-24T13:08:24.556Z,8.86
2023-03-24T13:11:21.896Z,8.73
2023-03-24T13:14:22.628Z,9.17
2023-03-24T13:17:17.784Z,9.50
2023-03-24T13:20:06.624Z,9.39
2023-03-24T13:22:52.192Z,9.33
2023-03-24T13:25:56.382Z,9.49
2023-03-24T13:29:03.126Z,9.58
2023-03-24T13:32:00.891Z,9.64
2023-03-24T13:34:59.505Z,9.95
2023-03-24T13:38:20.279Z,9.57
2023-03-24T13:41:10.584Z,9.48
2023-03-24T13:44:03.198Z,9.55
2023-03-24T13:47:15.794Z,9.40
2023-03-24T13:50:05.584Z,9.51
2023-03-24T13:52:50.870Z,9.60
2023-03-24T13:55:38.625Z,9.76
2023-03-24T13:58:27.091Z,10.12
2023-03-24T14:01:12.394Z,10.24
2023-03-24T14:04:42.939Z,10.21
2023-03-24T14:07:33.984Z,10.05
2023-03-24T14:10:19.334Z,10.20
2023-03-24T14:13:19.340Z,10.39
2023-03-24T14:16:27.665Z,10.45
2023-03-24T14:19:16.184Z,10.33
2023-03-24T14:22:15.344Z,10.22
2023-03-24T14:25:02.036Z,10.48
2023-03-24T14:27:49.180Z,10.37
2023-03-24T14:30:34.519Z,10.27
2023-03-24T14:33:25.422Z,10.63
2023-03-24T14:36:11.040Z,10.96
2023-03-24T14:39:06.065Z,10.95
2023-03-24T14:41:51.707Z,10.75
2023-03-24T14:44:45.977Z,11.00
2023-03-24T14:47:33.822Z,10.78
2023-03-24T14:50:22.530Z,10.90
2023-03-24T14:53:19.325Z,11.09
2023-03-24T14:56:11.799Z,11.15
2023-03-24T14:59:10.589Z,10.65
2023-03-24T15:02:03.658Z,10.95
2023-03-24T15:05:14.203Z,11.04
2023-03-24T15:08:14.408Z,10.70
2023-03-24T15:11:04.659Z,10.85
2023-03-24T15:13:52.037Z,10.28
2023-03-24T15:16:38.060Z,10.59
2023-03-24T15:19:29.336Z,10.63
2023-03-24T15:22:15.355Z,10.99
2023-03-24T15:25:00.778Z,10.87
2023-03-24T15:27:50.311Z,10.46
2023-03-24T15:30:36.095Z,10.35
2023-03-24T15:33:21.527Z,10.38
2023-03-24T15:36:21.291Z,10.53
2023-03-24T15:39:20.972Z,10.60
2023-03-24T15:42:16.828Z,11.00
2023-03-24T15:45:29.094Z,11.15
2023-03-24T15:48:18.235Z,11.22
2023-03-24T15:51:05.850Z,10.88
2023-03-24T15:53:57.624Z,10.92
2023-03-24T15:56:43.096Z,10.61
2023-03-24T15:59:36.174Z,10.65
2023-03-24T16:02:41.860Z,10.41
2023-03-24T16:05:31.914Z,10.65
2023-03-24T16:08:25.915Z,10.79
2023-03-24T16:11:13.752Z,10.63
2023-03-24T16:13:59.764Z,10.59
2023-03-24T16:16:45.034Z,10.15
2023-03-24T16:19:30.667Z,10.62
2023-03-24T16:22:15.742Z,10.36
2023-03-24T16:25:01.178Z,10.52
2023-03-24T16:27:46.643Z,10.33
2023-03-24T16:30:38.107Z,10.39
2023-03-24T16:33:23.405Z,10.48
2023-03-24T16:36:11.588Z,10.26
2023-03-24T16:38:59.670Z,10.39
2023-03-24T16:41:45.643Z,10.39
2023-03-24T16:44:31.061Z,10.32
2023-03-24T16:47:16.571Z,10.42
2023-03-24T16:50:01.922Z,10.58
2023-03-24T16:52:47.392Z,10.41
2023-03-24T16:55:32.797Z,10.20
2023-03-24T16:58:18.088Z,10.12
2023-03-24T17:01:14.198Z,9.94
2023-03-24T17:04:03.775Z,9.98
2023-03-24T17:06:51.961Z,10.05
2023-03-24T17:09:37.283Z,10.16
2023-03-24T17:12:22.574Z,10.01
2023-03-24T17:15:16.566Z,9.96
2023-03-24T17:18:02.169Z,9.85
2023-03-24T17:20:47.634Z,9.57
2023-03-24T17:23:32.937Z,9.66
2023-03-24T17:26:18.100Z,9.73
2023-03-24T17:29:04.317Z,9.69
2023-03-24T17:31:49.884Z,9.68
2023-03-24T17:34:35.408Z,9.61
2023-03-24T17:37:21.166Z,9.76
2023-03-24T17:40:07.223Z,9.53
2023-03-24T17:42:52.550Z,9.43
2023-03-24T17:45:40.296Z,9.57
2023-03-24T17:48:26.471Z,9.40
2023-03-24T17:51:11.716Z,9.35
2023-03-24T17:53:56.904Z,9.33
2023-03-24T17:56:42.153Z,9.42
2023-03-24T17:59:27.755Z,9.19
2023-03-24T18:02:13.848Z,9.05
2023-03-24T18:04:59.469Z,8.97
2023-03-24T18:07:44.929Z,9.17
2023-03-24T18:10:31.547Z,9.04
2023-03-24T18:13:16.782Z,9.07
2023-03-24T18:16:09.803Z,8.97
2023-03-24T18:19:03.551Z,9.13
2023-03-24T18:21:48.972Z,9.07
2023-03-24T18:24:34.440Z,8.88
2023-03-24T18:27:19.944Z,9.02
2023-03-24T18:30:07.099Z,9.06
2023-03-24T18:32:52.540Z,9.09
2023-03-24T18:35:38.193Z,9.05
2023-03-24T18:38:23.883Z,8.92
2023-03-24T18:41:10.694Z,8.79
2023-03-24T18:43:57.891Z,8.75
2023-03-24T18:46:43.473Z,8.85
2023-03-24T18:49:28.997Z,8.14
2023-03-24T18:52:14.189Z,8.70
2023-03-24T18:54:59.591Z,8.57
2023-03-24T18:57:44.831Z,8.78
2023-03-24T19:00:30.278Z,8.77
2023-03-24T19:03:15.895Z,8.43
2023-03-24T19:06:02.817Z,8.16
2023-03-24T19:08:52.838Z,8.37
2023-03-24T19:11:39.271Z,7.95
2023-03-24T19:14:25.965Z,8.39
2023-03-24T19:17:11.441Z,8.54
2023-03-24T19:19:56.804Z,8.25
2023-03-24T19:22:42.338Z,8.10
2023-03-24T19:25:27.549Z,8.01
2023-03-24T19:28:12.899Z,8.25
2023-03-24T19:31:00.662Z,8.55
2023-03-24T19:33:47.046Z,8.28
2023-03-24T19:36:32.131Z,8.67
2023-03-24T19:39:17.218Z,8.78
2023-03-24T19:42:02.411Z,8.79
2023-03-24T19:44:47.954Z,8.85
2023-03-24T19:47:33.445Z,8.98
2023-03-24T19:50:18.768Z,8.99
2023-03-24T19:53:04.336Z,8.97
2023-03-24T19:55:50.524Z,8.97
2023-03-24T19:58:35.782Z,8.91
2023-03-24T20:01:21.389Z,8.80
2023-03-24T20:04:06.750Z,8.67
2023-03-24T20:06:52.463Z,8.55
2023-03-24T20:09:38.171Z,8.46
2023-03-24T20:12:23.548Z,8.58
2023-03-24T20:15:08.984Z,8.38
2023-03-24T20:17:54.497Z,8.43
2023-03-24T20:20:39.819Z,8.20
2023-03-24T20:23:25.615Z,7.85
2023-03-24T20:26:11.171Z,7.49
2023-03-24T20:28:56.350Z,7.81
2023-03-24T20:31:41.646Z,7.69
2023-03-24T20:34:27.839Z,7.67
2023-03-24T20:37:13.398Z,7.69
2023-03-24T20:39:59.065Z,7.61
2023-03-24T20:42:44.621Z,7.55
2023-03-24T20:45:29.826Z,7.49
2023-03-24T20:48:15.031Z,7.50
2023-03-24T20:51:01.014Z,7.34
2023-03-24T20:53:47.451Z,7.03
2023-03-24T20:56:34.519Z,6.86
2023-03-24T20:59:19.801Z,6.94
2023-03-24T21:02:05.656Z,6.66
2023-03-24T21:04:51.107Z,6.75
2023-03-24T21:07:36.323Z,6.84
2023-03-24T21:10:21.932Z,6.72
2023-03-24T21:13:08.716Z,6.45
2023-03-24T21:15:54.105Z,6.30
2023-03-24T21:18:39.600Z,6.21
2023-03-24T21:21:24.924Z,6.39
2023-03-24T21:24:10.536Z,6.46
2023-03-24T21:26:58.944Z,6.35
2023-03-24T21:29:44.280Z,6.12
2023-03-24T21:32:29.555Z,5.99
2023-03-24T21:35:16.062Z,5.96
2023-03-24T21:38:01.471Z,5.91
2023-03-24T21:40:47.276Z,5.89
2023-03-24T21:43:33.278Z,5.77
2023-03-24T21:46:19.341Z,5.91
2023-03-24T21:49:04.935Z,5.92
2023-03-24T21:51:50.716Z,5.96
2023-03-24T21:54:35.830Z,5.96
2023-03-24T21:57:21.015Z,5.87
2023-03-24T22:00:07.184Z,5.80
2023-03-24T22:02:56.454Z,5.83
2023-03-24T22:05:41.699Z,5.83
2023-03-24T22:08:27.713Z,5.97
2023-03-24T22:11:13.268Z,5.97
2023-03-24T22:13:59.900Z,5.93
2023-03-24T22:16:45.857Z,5.83
2023-03-24T22:19:30.923Z,5.94
2023-03-24T22:22:16.507Z,6.10
2023-03-24T22:25:03.310Z,6.22
2023-03-24T22:27:49.922Z,5.97
2023-03-24T22:30:36.757Z,6.19
2023-03-24T22:33:22.077Z,6.40
2023-03-24T22:36:08.409Z,6.36
2023-03-24T22:38:53.751Z,6.33
2023-03-24T22:41:39.048Z,6.39
2023-03-24T22:44:28.118Z,6.06
2023-03-24T22:47:13.533Z,6.08
2023-03-24T22:49:58.660Z,6.21
2023-03-24T22:52:44.093Z,6.28
2023-03-24T22:55:29.344Z,6.16
2023-03-24T22:58:14.919Z,6.17
2023-03-24T23:01:00.385Z,6.27
2023-03-24T23:03:45.932Z,6.25
2023-03-24T23:06:31.217Z,6.33
2023-03-24T23:09:16.556Z,6.36
2023-03-24T23:12:01.948Z,6.44
2023-03-24T23:14:47.471Z,5.90
2023-03-24T23:17:32.825Z,5.84
2023-03-24T23:20:19.302Z,5.93
2023-03-24T23:23:06.377Z,5.74
2023-03-24T23:25:52.238Z,5.75
2023-03-24T23:28:37.405Z,5.73
2023-03-24T23:31:25.641Z,5.19
2023-03-24T23:34:11.523Z,5.38
2023-03-24T23:36:56.870Z,4.91
2023-03-24T23:39:42.335Z,5.17
2023-03-24T23:42:28.725Z,5.00
2023-03-24T23:45:17.312Z,4.95
2023-03-24T23:48:02.626Z,4.67
2023-03-24T23:50:55.829Z,4.98
2023-03-24T23:53:41.441Z,4.93
2023-03-24T23:56:26.583Z,4.52
2023-03-24T23:59:11.999Z,5.07
